Terminal Aerodrome Forecast
Issued by NWS Blacksburg, VA

Current Version | Previous Version | Text Only | Print | Product List | Glossary Off
Versions: 1 2 3 4 5 6 7 8 9 10 11 12 13 14 15 16 17 18 19 20 21 22 23 24 25 26 27 28 29 30 31 32 33

000
FTUS41 KRNK 041733
TAFBLF
TAF
KBLF 041733Z 0418/0518 02003KT P6SM VCTS BKN050CB
     FM050300 12003KT P6SM VCSH SCT040 BKN080
     FM050600 11004KT 6SM BR SCT015 OVC040
     FM051000 11004KT 4SM BR OVC020
     FM051500 10005KT P6SM SCT015 OVC030=

USA.gov is the U.S. government's official web portal to all federal, state and local government web resources and services.